Langor, Minnesota
Current Conditions -  °F | °C
As of 7:14 AM on Saturday 25 Oct 2014 (Local Time) from KVWU Reporting Station
Clear Clear  
Wind Chill: 37°   Ceiling: Unl
Heat Index: 45°   Visibility: 10mi
Dew Point: 36°   Wind: 16mph
Humidity: 71%   Direction: 260°W
Pressure: 29.93"   Gusts: 23mph
Location:  47.7306°N, 94.3762°W
Report Text: KVWU 251214Z AUTO 26014G20KT 10SM CLR 07/02 A2993 RMK AO2
Loading
Personal Weather Stations






























Interactive Weather Map
Tropical Storm Tracking
New forecast layout! Learn more

10-Day Weather Forecast

Advertisements
Track Severe Weather on mobile